sensor_id;sensor_type;location;lat;lon;timestamp;temperature;humidity
17956;DHT22;27666;51.498;11.966;2024-02-26T00:00:50;5.90;99.90
17956;DHT22;27666;51.498;11.966;2024-02-26T00:03:37;5.90;99.90
17956;DHT22;27666;51.498;11.966;2024-02-26T00:06:26;5.90;99.90
17956;DHT22;27666;51.498;11.966;2024-02-26T00:09:15;5.90;99.90
17956;DHT22;27666;51.498;11.966;2024-02-26T00:12:01;5.90;99.90
17956;DHT22;27666;51.498;11.966;2024-02-26T00:14:49;5.90;99.90
17956;DHT22;27666;51.498;11.966;2024-02-26T00:17:38;6.00;99.90
17956;DHT22;27666;51.498;11.966;2024-02-26T00:20:29;5.90;99.90
17956;DHT22;27666;51.498;11.966;2024-02-26T00:23:15;5.90;99.90
17956;DHT22;27666;51.498;11.966;2024-02-26T00:26:04;5.90;99.90
17956;DHT22;27666;51.498;11.966;2024-02-26T00:28:56;5.90;99.90
17956;DHT22;27666;51.498;11.966;2024-02-26T00:31:42;5.90;99.90
17956;DHT22;27666;51.498;11.966;2024-02-26T00:34:29;5.80;99.90
17956;DHT22;27666;51.498;11.966;2024-02-26T00:37:15;5.70;99.90
17956;DHT22;27666;51.498;11.966;2024-02-26T00:40:02;5.60;99.90
17956;DHT22;27666;51.498;11.966;2024-02-26T00:42:50;5.50;99.90
17956;DHT22;27666;51.498;11.966;2024-02-26T00:45:36;5.40;99.90
17956;DHT22;27666;51.498;11.966;2024-02-26T00:48:23;5.40;99.90
17956;DHT22;27666;51.498;11.966;2024-02-26T00:51:12;5.40;99.90
17956;DHT22;27666;51.498;11.966;2024-02-26T00:54:01;5.40;99.90
17956;DHT22;27666;51.498;11.966;2024-02-26T00:56:48;5.20;99.90
17956;DHT22;27666;51.498;11.966;2024-02-26T00:59:37;5.20;99.90
17956;DHT22;27666;51.498;11.966;2024-02-26T01:02:24;5.30;99.90
17956;DHT22;27666;51.498;11.966;2024-02-26T01:05:11;5.10;99.90
17956;DHT22;27666;51.498;11.966;2024-02-26T01:07:58;5.10;99.90
17956;DHT22;27666;51.498;11.966;2024-02-26T01:10:46;5.20;99.90
17956;DHT22;27666;51.498;11.966;2024-02-26T01:13:33;5.20;99.90
17956;DHT22;27666;51.498;11.966;2024-02-26T01:16:21;5.20;99.90
17956;DHT22;27666;51.498;11.966;2024-02-26T01:19:07;5.20;99.90
17956;DHT22;27666;51.498;11.966;2024-02-26T01:21:54;5.20;99.90
17956;DHT22;27666;51.498;11.966;2024-02-26T01:24:40;5.20;99.90
17956;DHT22;27666;51.498;11.966;2024-02-26T01:27:27;5.20;99.90
17956;DHT22;27666;51.498;11.966;2024-02-26T01:30:14;5.10;99.90
17956;DHT22;27666;51.498;11.966;2024-02-26T01:33:03;5.10;99.90
17956;DHT22;27666;51.498;11.966;2024-02-26T01:35:49;5.20;99.90
17956;DHT22;27666;51.498;11.966;2024-02-26T01:38:36;5.00;99.90
17956;DHT22;27666;51.498;11.966;2024-02-26T01:41:23;5.00;99.90
17956;DHT22;27666;51.498;11.966;2024-02-26T01:44:12;4.90;99.90
17956;DHT22;27666;51.498;11.966;2024-02-26T01:46:59;4.80;99.90
17956;DHT22;27666;51.498;11.966;2024-02-26T01:49:48;4.80;99.90
17956;DHT22;27666;51.498;11.966;2024-02-26T01:52:35;4.80;99.90
17956;DHT22;27666;51.498;11.966;2024-02-26T01:55:23;4.80;99.90
17956;DHT22;27666;51.498;11.966;2024-02-26T01:58:10;4.70;99.90
17956;DHT22;27666;51.498;11.966;2024-02-26T02:00:57;4.60;99.90
17956;DHT22;27666;51.498;11.966;2024-02-26T02:03:45;4.60;99.90
17956;DHT22;27666;51.498;11.966;2024-02-26T02:06:33;4.60;99.90
17956;DHT22;27666;51.498;11.966;2024-02-26T02:09:20;4.70;99.90
17956;DHT22;27666;51.498;11.966;2024-02-26T02:12:08;4.70;99.90
17956;DHT22;27666;51.498;11.966;2024-02-26T02:14:56;4.60;99.90
17956;DHT22;27666;51.498;11.966;2024-02-26T02:17:44;4.60;99.90
17956;DHT22;27666;51.498;11.966;2024-02-26T02:20:33;4.60;99.90
17956;DHT22;27666;51.498;11.966;2024-02-26T02:23:23;4.60;99.90
17956;DHT22;27666;51.498;11.966;2024-02-26T02:26:09;4.60;99.90
17956;DHT22;27666;51.498;11.966;2024-02-26T02:28:57;4.50;99.90
17956;DHT22;27666;51.498;11.966;2024-02-26T02:31:44;4.50;99.90
17956;DHT22;27666;51.498;11.966;2024-02-26T02:34:31;4.40;99.90
17956;DHT22;27666;51.498;11.966;2024-02-26T02:37:22;4.30;99.90
17956;DHT22;27666;51.498;11.966;2024-02-26T02:40:09;4.30;99.90
17956;DHT22;27666;51.498;11.966;2024-02-26T02:42:56;4.30;99.90
17956;DHT22;27666;51.498;11.966;2024-02-26T02:45:42;4.40;99.90
17956;DHT22;27666;51.498;11.966;2024-02-26T02:48:30;4.60;99.90
17956;DHT22;27666;51.498;11.966;2024-02-26T02:51:18;4.70;99.90
17956;DHT22;27666;51.498;11.966;2024-02-26T02:54:06;4.80;99.90
17956;DHT22;27666;51.498;11.966;2024-02-26T02:56:52;4.90;99.90
17956;DHT22;27666;51.498;11.966;2024-02-26T02:59:39;4.90;99.90
17956;DHT22;27666;51.498;11.966;2024-02-26T03:02:25;4.90;99.90
17956;DHT22;27666;51.498;11.966;2024-02-26T03:05:12;5.00;99.90
17956;DHT22;27666;51.498;11.966;2024-02-26T03:08:00;5.00;99.90
17956;DHT22;27666;51.498;11.966;2024-02-26T03:10:50;5.00;99.90
17956;DHT22;27666;51.498;11.966;2024-02-26T03:13:36;5.10;99.90
17956;DHT22;27666;51.498;11.966;2024-02-26T03:16:26;5.10;99.90
17956;DHT22;27666;51.498;11.966;2024-02-26T03:19:14;5.10;99.90
17956;DHT22;27666;51.498;11.966;2024-02-26T03:22:01;5.00;99.90
17956;DHT22;27666;51.498;11.966;2024-02-26T03:24:48;4.90;99.90
17956;DHT22;27666;51.498;11.966;2024-02-26T03:27:39;4.80;99.90
17956;DHT22;27666;51.498;11.966;2024-02-26T03:30:25;4.80;99.90
17956;DHT22;27666;51.498;11.966;2024-02-26T03:33:13;4.70;99.90
17956;DHT22;27666;51.498;11.966;2024-02-26T03:35:59;4.60;99.90
17956;DHT22;27666;51.498;11.966;2024-02-26T03:38:48;4.50;99.90
17956;DHT22;27666;51.498;11.966;2024-02-26T03:41:34;4.30;99.90
17956;DHT22;27666;51.498;11.966;2024-02-26T03:44:22;4.20;99.90
17956;DHT22;27666;51.498;11.966;2024-02-26T03:47:12;4.10;99.90
17956;DHT22;27666;51.498;11.966;2024-02-26T03:50:08;3.90;99.90
17956;DHT22;27666;51.498;11.966;2024-02-26T03:52:55;3.80;99.90
17956;DHT22;27666;51.498;11.966;2024-02-26T03:55:44;3.70;99.90
17956;DHT22;27666;51.498;11.966;2024-02-26T03:58:34;3.60;99.90
17956;DHT22;27666;51.498;11.966;2024-02-26T04:01:22;3.50;99.90
17956;DHT22;27666;51.498;11.966;2024-02-26T04:04:09;3.40;99.90
17956;DHT22;27666;51.498;11.966;2024-02-26T04:06:55;3.30;99.90
17956;DHT22;27666;51.498;11.966;2024-02-26T04:09:42;3.30;99.90
17956;DHT22;27666;51.498;11.966;2024-02-26T04:12:29;3.40;99.90
17956;DHT22;27666;51.498;11.966;2024-02-26T04:15:15;3.50;99.90
17956;DHT22;27666;51.498;11.966;2024-02-26T04:18:03;3.50;99.90
17956;DHT22;27666;51.498;11.966;2024-02-26T04:20:50;3.50;99.90
17956;DHT22;27666;51.498;11.966;2024-02-26T04:23:37;3.50;99.90
17956;DHT22;27666;51.498;11.966;2024-02-26T04:26:23;3.50;99.90
17956;DHT22;27666;51.498;11.966;2024-02-26T04:29:10;3.50;99.90
17956;DHT22;27666;51.498;11.966;2024-02-26T04:31:57;3.50;99.90
17956;DHT22;27666;51.498;11.966;2024-02-26T04:34:47;3.60;99.90
17956;DHT22;27666;51.498;11.966;2024-02-26T04:37:33;3.50;99.90
17956;DHT22;27666;51.498;11.966;2024-02-26T04:40:19;3.60;99.90
17956;DHT22;27666;51.498;11.966;2024-02-26T04:43:06;3.70;99.90
17956;DHT22;27666;51.498;11.966;2024-02-26T04:45:53;3.60;99.90
17956;DHT22;27666;51.498;11.966;2024-02-26T04:48:40;3.50;99.90
17956;DHT22;27666;51.498;11.966;2024-02-26T04:51:29;3.50;99.90
17956;DHT22;27666;51.498;11.966;2024-02-26T04:54:15;3.40;99.90
17956;DHT22;27666;51.498;11.966;2024-02-26T04:57:03;3.40;99.90
17956;DHT22;27666;51.498;11.966;2024-02-26T04:59:50;3.40;99.90
17956;DHT22;27666;51.498;11.966;2024-02-26T05:02:36;3.40;99.90
17956;DHT22;27666;51.498;11.966;2024-02-26T05:05:24;3.40;99.90
17956;DHT22;27666;51.498;11.966;2024-02-26T05:08:12;3.50;99.90
17956;DHT22;27666;51.498;11.966;2024-02-26T05:10:59;3.40;99.90
17956;DHT22;27666;51.498;11.966;2024-02-26T05:13:47;3.50;99.90
17956;DHT22;27666;51.498;11.966;2024-02-26T05:16:33;3.50;99.90
17956;DHT22;27666;51.498;11.966;2024-02-26T05:19:20;3.60;99.90
17956;DHT22;27666;51.498;11.966;2024-02-26T05:22:06;3.60;99.90
17956;DHT22;27666;51.498;11.966;2024-02-26T05:24:54;3.70;99.90
17956;DHT22;27666;51.498;11.966;2024-02-26T05:27:42;3.70;99.90
17956;DHT22;27666;51.498;11.966;2024-02-26T05:30:29;3.60;99.90
17956;DHT22;27666;51.498;11.966;2024-02-26T05:33:15;3.70;99.90
17956;DHT22;27666;51.498;11.966;2024-02-26T05:36:03;3.70;99.90
17956;DHT22;27666;51.498;11.966;2024-02-26T05:38:50;3.60;99.90
17956;DHT22;27666;51.498;11.966;2024-02-26T05:41:38;3.50;99.90
17956;DHT22;27666;51.498;11.966;2024-02-26T05:44:26;3.40;99.90
17956;DHT22;27666;51.498;11.966;2024-02-26T05:47:13;3.20;99.90
17956;DHT22;27666;51.498;11.966;2024-02-26T05:49:59;3.20;99.90
17956;DHT22;27666;51.498;11.966;2024-02-26T05:52:46;3.20;99.90
17956;DHT22;27666;51.498;11.966;2024-02-26T05:55:32;3.10;99.90
17956;DHT22;27666;51.498;11.966;2024-02-26T05:58:20;3.10;99.90
17956;DHT22;27666;51.498;11.966;2024-02-26T06:01:07;3.20;99.90
17956;DHT22;27666;51.498;11.966;2024-02-26T06:03:53;3.10;99.90
17956;DHT22;27666;51.498;11.966;2024-02-26T06:06:39;3.10;99.90
17956;DHT22;27666;51.498;11.966;2024-02-26T06:09:30;3.10;99.90
17956;DHT22;27666;51.498;11.966;2024-02-26T06:12:16;3.10;99.90
17956;DHT22;27666;51.498;11.966;2024-02-26T06:15:05;3.10;99.90
17956;DHT22;27666;51.498;11.966;2024-02-26T06:17:51;3.20;99.90
17956;DHT22;27666;51.498;11.966;2024-02-26T06:20:38;3.30;99.90
17956;DHT22;27666;51.498;11.966;2024-02-26T06:23:24;3.40;99.90
17956;DHT22;27666;51.498;11.966;2024-02-26T06:26:11;3.40;99.90
17956;DHT22;27666;51.498;11.966;2024-02-26T06:28:57;3.40;99.90
17956;DHT22;27666;51.498;11.966;2024-02-26T06:31:45;3.50;99.90
17956;DHT22;27666;51.498;11.966;2024-02-26T06:34:33;3.50;99.90
17956;DHT22;27666;51.498;11.966;2024-02-26T06:37:22;3.50;99.90
17956;DHT22;27666;51.498;11.966;2024-02-26T06:40:09;3.50;99.90
17956;DHT22;27666;51.498;11.966;2024-02-26T06:42:56;3.50;99.90
17956;DHT22;27666;51.498;11.966;2024-02-26T06:45:42;3.60;99.90
17956;DHT22;27666;51.498;11.966;2024-02-26T06:48:30;3.70;99.90
17956;DHT22;27666;51.498;11.966;2024-02-26T06:51:17;3.70;99.90
17956;DHT22;27666;51.498;11.966;2024-02-26T06:54:03;3.70;99.90
17956;DHT22;27666;51.498;11.966;2024-02-26T06:56:52;3.80;99.90
17956;DHT22;27666;51.498;11.966;2024-02-26T06:59:39;3.90;99.90
17956;DHT22;27666;51.498;11.966;2024-02-26T07:02:25;4.00;99.90
17956;DHT22;27666;51.498;11.966;2024-02-26T07:05:13;4.10;99.90
17956;DHT22;27666;51.498;11.966;2024-02-26T07:07:59;4.20;99.90
17956;DHT22;27666;51.498;11.966;2024-02-26T07:10:46;4.20;99.90
17956;DHT22;27666;51.498;11.966;2024-02-26T07:13:33;4.30;99.90
17956;DHT22;27666;51.498;11.966;2024-02-26T07:16:20;4.40;99.90
17956;DHT22;27666;51.498;11.966;2024-02-26T07:19:07;4.40;99.90
17956;DHT22;27666;51.498;11.966;2024-02-26T07:21:54;4.40;99.90
17956;DHT22;27666;51.498;11.966;2024-02-26T07:24:41;4.40;99.90
17956;DHT22;27666;51.498;11.966;2024-02-26T07:27:28;4.40;99.90
17956;DHT22;27666;51.498;11.966;2024-02-26T07:30:15;4.50;99.90
17956;DHT22;27666;51.498;11.966;2024-02-26T07:33:03;4.60;99.90
17956;DHT22;27666;51.498;11.966;2024-02-26T07:35:49;4.50;99.90
17956;DHT22;27666;51.498;11.966;2024-02-26T07:38:38;4.60;99.90
17956;DHT22;27666;51.498;11.966;2024-02-26T07:41:28;4.70;99.90
17956;DHT22;27666;51.498;11.966;2024-02-26T07:44:14;4.80;99.90
17956;DHT22;27666;51.498;11.966;2024-02-26T07:47:01;5.00;99.90
17956;DHT22;27666;51.498;11.966;2024-02-26T07:49:48;5.00;99.90
17956;DHT22;27666;51.498;11.966;2024-02-26T07:52:35;5.10;99.90
17956;DHT22;27666;51.498;11.966;2024-02-26T07:55:22;5.30;99.90
17956;DHT22;27666;51.498;11.966;2024-02-26T07:58:09;5.40;99.90
17956;DHT22;27666;51.498;11.966;2024-02-26T08:00:55;5.40;99.90
17956;DHT22;27666;51.498;11.966;2024-02-26T08:03:42;5.60;99.90
17956;DHT22;27666;51.498;11.966;2024-02-26T08:06:29;5.80;99.90
17956;DHT22;27666;51.498;11.966;2024-02-26T08:09:19;5.90;99.90
17956;DHT22;27666;51.498;11.966;2024-02-26T08:12:09;6.00;99.90
17956;DHT22;27666;51.498;11.966;2024-02-26T08:14:55;6.00;99.90
17956;DHT22;27666;51.498;11.966;2024-02-26T08:17:45;6.00;99.90
17956;DHT22;27666;51.498;11.966;2024-02-26T08:20:32;6.10;99.90
17956;DHT22;27666;51.498;11.966;2024-02-26T08:23:19;6.20;99.90
17956;DHT22;27666;51.498;11.966;2024-02-26T08:26:05;6.20;99.90
17956;DHT22;27666;51.498;11.966;2024-02-26T08:28:57;6.20;99.90
17956;DHT22;27666;51.498;11.966;2024-02-26T08:31:43;6.40;99.90
17956;DHT22;27666;51.498;11.966;2024-02-26T08:34:30;6.50;99.90
17956;DHT22;27666;51.498;11.966;2024-02-26T08:37:17;6.50;99.90
17956;DHT22;27666;51.498;11.966;2024-02-26T08:40:05;6.60;99.90
17956;DHT22;27666;51.498;11.966;2024-02-26T08:42:55;6.70;99.90
17956;DHT22;27666;51.498;11.966;2024-02-26T08:45:43;6.90;99.90
17956;DHT22;27666;51.498;11.966;2024-02-26T08:48:30;6.70;99.90
17956;DHT22;27666;51.498;11.966;2024-02-26T08:51:16;6.60;99.90
17956;DHT22;27666;51.498;11.966;2024-02-26T08:54:03;6.70;99.90
17956;DHT22;27666;51.498;11.966;2024-02-26T08:56:49;6.80;99.90
17956;DHT22;27666;51.498;11.966;2024-02-26T08:59:36;6.80;99.90
17956;DHT22;27666;51.498;11.966;2024-02-26T09:02:24;6.90;99.90
17956;DHT22;27666;51.498;11.966;2024-02-26T09:05:10;7.00;99.90
17956;DHT22;27666;51.498;11.966;2024-02-26T09:07:57;7.00;99.90
17956;DHT22;27666;51.498;11.966;2024-02-26T09:10:43;7.00;99.90
17956;DHT22;27666;51.498;11.966;2024-02-26T09:13:30;7.10;99.90
17956;DHT22;27666;51.498;11.966;2024-02-26T09:16:16;7.20;99.90
17956;DHT22;27666;51.498;11.966;2024-02-26T09:19:04;7.20;99.90
17956;DHT22;27666;51.498;11.966;2024-02-26T09:21:51;7.30;99.90
17956;DHT22;27666;51.498;11.966;2024-02-26T09:24:39;7.20;99.90
17956;DHT22;27666;51.498;11.966;2024-02-26T09:27:25;7.10;99.90
17956;DHT22;27666;51.498;11.966;2024-02-26T09:30:12;7.20;99.90
17956;DHT22;27666;51.498;11.966;2024-02-26T09:32:59;7.30;99.90
17956;DHT22;27666;51.498;11.966;2024-02-26T09:35:47;7.30;99.90
17956;DHT22;27666;51.498;11.966;2024-02-26T09:38:34;7.40;99.90
17956;DHT22;27666;51.498;11.966;2024-02-26T09:41:40;7.50;99.90
17956;DHT22;27666;51.498;11.966;2024-02-26T09:44:29;7.40;99.90
17956;DHT22;27666;51.498;11.966;2024-02-26T09:47:19;7.60;99.90
17956;DHT22;27666;51.498;11.966;2024-02-26T09:50:09;7.70;99.90
17956;DHT22;27666;51.498;11.966;2024-02-26T09:52:59;7.90;99.90
17956;DHT22;27666;51.498;11.966;2024-02-26T09:55:48;8.10;99.90
17956;DHT22;27666;51.498;11.966;2024-02-26T09:58:35;8.10;99.90
17956;DHT22;27666;51.498;11.966;2024-02-26T10:01:22;8.20;99.90
17956;DHT22;27666;51.498;11.966;2024-02-26T10:04:11;8.40;99.90
17956;DHT22;27666;51.498;11.966;2024-02-26T10:06:58;8.50;99.90
17956;DHT22;27666;51.498;11.966;2024-02-26T10:09:50;8.50;99.90
17956;DHT22;27666;51.498;11.966;2024-02-26T10:12:36;8.50;99.90
17956;DHT22;27666;51.498;11.966;2024-02-26T10:15:23;8.50;99.90
17956;DHT22;27666;51.498;11.966;2024-02-26T10:18:10;8.50;99.90
17956;DHT22;27666;51.498;11.966;2024-02-26T10:21:00;8.50;99.90
17956;DHT22;27666;51.498;11.966;2024-02-26T10:23:47;8.40;99.90
17956;DHT22;27666;51.498;11.966;2024-02-26T10:26:35;8.50;99.90
17956;DHT22;27666;51.498;11.966;2024-02-26T10:29:24;8.50;99.90
17956;DHT22;27666;51.498;11.966;2024-02-26T10:32:11;8.50;99.90
17956;DHT22;27666;51.498;11.966;2024-02-26T10:34:58;8.60;99.90
17956;DHT22;27666;51.498;11.966;2024-02-26T10:37:46;8.60;99.90
17956;DHT22;27666;51.498;11.966;2024-02-26T10:40:33;8.60;99.90
17956;DHT22;27666;51.498;11.966;2024-02-26T10:43:21;8.70;99.90
17956;DHT22;27666;51.498;11.966;2024-02-26T10:46:08;8.70;99.90
17956;DHT22;27666;51.498;11.966;2024-02-26T10:48:56;8.80;99.90
17956;DHT22;27666;51.498;11.966;2024-02-26T10:51:44;8.80;99.90
17956;DHT22;27666;51.498;11.966;2024-02-26T10:54:32;8.90;99.90
17956;DHT22;27666;51.498;11.966;2024-02-26T10:57:20;8.80;99.90
17956;DHT22;27666;51.498;11.966;2024-02-26T11:00:13;8.70;99.90
17956;DHT22;27666;51.498;11.966;2024-02-26T11:03:01;8.80;99.90
17956;DHT22;27666;51.498;11.966;2024-02-26T11:05:51;8.80;99.90
17956;DHT22;27666;51.498;11.966;2024-02-26T11:08:38;8.80;99.90
17956;DHT22;27666;51.498;11.966;2024-02-26T11:11:26;8.90;99.90
17956;DHT22;27666;51.498;11.966;2024-02-26T11:14:14;8.90;99.90
17956;DHT22;27666;51.498;11.966;2024-02-26T11:17:02;8.90;99.90
17956;DHT22;27666;51.498;11.966;2024-02-26T11:19:50;8.90;99.90
17956;DHT22;27666;51.498;11.966;2024-02-26T11:22:38;9.00;99.90
17956;DHT22;27666;51.498;11.966;2024-02-26T11:25:25;9.00;99.90
17956;DHT22;27666;51.498;11.966;2024-02-26T11:28:14;9.10;99.90
17956;DHT22;27666;51.498;11.966;2024-02-26T11:31:02;9.10;99.90
17956;DHT22;27666;51.498;11.966;2024-02-26T11:33:51;9.20;99.90
17956;DHT22;27666;51.498;11.966;2024-02-26T11:36:37;9.20;99.90
17956;DHT22;27666;51.498;11.966;2024-02-26T11:39:24;9.40;99.90
17956;DHT22;27666;51.498;11.966;2024-02-26T11:42:14;9.40;99.90
17956;DHT22;27666;51.498;11.966;2024-02-26T11:45:01;9.40;99.90
17956;DHT22;27666;51.498;11.966;2024-02-26T11:47:55;9.50;99.90
17956;DHT22;27666;51.498;11.966;2024-02-26T11:50:47;9.60;99.90
17956;DHT22;27666;51.498;11.966;2024-02-26T11:53:33;9.60;99.90
17956;DHT22;27666;51.498;11.966;2024-02-26T11:56:26;9.70;99.90
17956;DHT22;27666;51.498;11.966;2024-02-26T11:59:37;9.80;99.90
17956;DHT22;27666;51.498;11.966;2024-02-26T12:02:46;9.80;99.90
17956;DHT22;27666;51.498;11.966;2024-02-26T12:05:34;9.90;99.90
17956;DHT22;27666;51.498;11.966;2024-02-26T12:08:23;10.00;99.90
17956;DHT22;27666;51.498;11.966;2024-02-26T12:11:14;10.00;99.90
17956;DHT22;27666;51.498;11.966;2024-02-26T12:14:03;10.10;99.90
17956;DHT22;27666;51.498;11.966;2024-02-26T12:16:50;10.10;99.90
17956;DHT22;27666;51.498;11.966;2024-02-26T12:19:37;10.10;99.90
17956;DHT22;27666;51.498;11.966;2024-02-26T12:22:28;10.10;99.90
17956;DHT22;27666;51.498;11.966;2024-02-26T12:25:16;10.10;99.90
17956;DHT22;27666;51.498;11.966;2024-02-26T12:28:03;10.20;99.90
17956;DHT22;27666;51.498;11.966;2024-02-26T12:30:49;10.30;99.90
17956;DHT22;27666;51.498;11.966;2024-02-26T12:33:38;10.20;99.90
17956;DHT22;27666;51.498;11.966;2024-02-26T12:36:25;10.20;99.90
17956;DHT22;27666;51.498;11.966;2024-02-26T12:39:13;10.30;99.90
17956;DHT22;27666;51.498;11.966;2024-02-26T12:42:01;10.30;99.90
17956;DHT22;27666;51.498;11.966;2024-02-26T12:44:50;10.30;99.90
17956;DHT22;27666;51.498;11.966;2024-02-26T12:47:37;10.40;99.90
17956;DHT22;27666;51.498;11.966;2024-02-26T12:50:24;10.50;99.90
17956;DHT22;27666;51.498;11.966;2024-02-26T12:53:11;10.50;99.90
17956;DHT22;27666;51.498;11.966;2024-02-26T12:55:58;10.60;99.90
17956;DHT22;27666;51.498;11.966;2024-02-26T12:58:46;10.70;99.90
17956;DHT22;27666;51.498;11.966;2024-02-26T13:01:34;10.70;99.90
17956;DHT22;27666;51.498;11.966;2024-02-26T13:04:21;10.70;99.90
17956;DHT22;27666;51.498;11.966;2024-02-26T13:07:07;10.80;99.90
17956;DHT22;27666;51.498;11.966;2024-02-26T13:09:54;10.90;99.90
17956;DHT22;27666;51.498;11.966;2024-02-26T13:12:45;11.00;99.90
17956;DHT22;27666;51.498;11.966;2024-02-26T13:15:33;11.00;99.90
17956;DHT22;27666;51.498;11.966;2024-02-26T13:18:20;11.10;99.90
17956;DHT22;27666;51.498;11.966;2024-02-26T13:21:11;11.20;99.90
17956;DHT22;27666;51.498;11.966;2024-02-26T13:23:58;11.30;99.90
17956;DHT22;27666;51.498;11.966;2024-02-26T13:26:44;11.20;99.90
17956;DHT22;27666;51.498;11.966;2024-02-26T13:29:31;11.20;99.90
17956;DHT22;27666;51.498;11.966;2024-02-26T13:32:20;11.20;99.90
17956;DHT22;27666;51.498;11.966;2024-02-26T13:35:08;11.40;99.90
17956;DHT22;27666;51.498;11.966;2024-02-26T13:37:55;11.20;99.90
17956;DHT22;27666;51.498;11.966;2024-02-26T13:40:42;11.20;99.90
17956;DHT22;27666;51.498;11.966;2024-02-26T13:43:28;11.20;99.90
17956;DHT22;27666;51.498;11.966;2024-02-26T13:46:15;11.20;99.90
17956;DHT22;27666;51.498;11.966;2024-02-26T13:49:03;11.00;99.90
17956;DHT22;27666;51.498;11.966;2024-02-26T13:51:50;11.00;99.90
17956;DHT22;27666;51.498;11.966;2024-02-26T13:54:36;11.00;99.90
17956;DHT22;27666;51.498;11.966;2024-02-26T13:57:24;11.00;99.90
17956;DHT22;27666;51.498;11.966;2024-02-26T14:00:12;10.90;99.90
17956;DHT22;27666;51.498;11.966;2024-02-26T14:02:58;11.00;99.90
17956;DHT22;27666;51.498;11.966;2024-02-26T14:05:47;11.10;99.90
17956;DHT22;27666;51.498;11.966;2024-02-26T14:08:34;11.10;99.90
17956;DHT22;27666;51.498;11.966;2024-02-26T14:11:20;11.20;99.90
17956;DHT22;27666;51.498;11.966;2024-02-26T14:14:07;11.20;99.90
17956;DHT22;27666;51.498;11.966;2024-02-26T14:16:54;11.00;99.90
17956;DHT22;27666;51.498;11.966;2024-02-26T14:19:41;11.10;99.90
17956;DHT22;27666;51.498;11.966;2024-02-26T14:22:31;11.00;99.90
17956;DHT22;27666;51.498;11.966;2024-02-26T14:25:17;11.00;99.90
17956;DHT22;27666;51.498;11.966;2024-02-26T14:28:05;11.00;99.90
17956;DHT22;27666;51.498;11.966;2024-02-26T14:30:56;11.10;99.90
17956;DHT22;27666;51.498;11.966;2024-02-26T14:33:43;11.00;99.90
17956;DHT22;27666;51.498;11.966;2024-02-26T14:36:30;11.00;99.90
17956;DHT22;27666;51.498;11.966;2024-02-26T14:39:18;11.00;99.90
17956;DHT22;27666;51.498;11.966;2024-02-26T14:42:05;11.10;99.90
17956;DHT22;27666;51.498;11.966;2024-02-26T14:44:52;11.00;99.90
17956;DHT22;27666;51.498;11.966;2024-02-26T14:47:38;11.10;99.90
17956;DHT22;27666;51.498;11.966;2024-02-26T14:50:25;11.00;99.90
17956;DHT22;27666;51.498;11.966;2024-02-26T14:53:12;11.00;99.90
17956;DHT22;27666;51.498;11.966;2024-02-26T14:56:00;11.00;99.90
17956;DHT22;27666;51.498;11.966;2024-02-26T14:58:46;11.00;99.90
17956;DHT22;27666;51.498;11.966;2024-02-26T15:01:34;10.90;99.90
17956;DHT22;27666;51.498;11.966;2024-02-26T15:04:20;10.90;99.90
17956;DHT22;27666;51.498;11.966;2024-02-26T15:07:07;10.80;99.90
17956;DHT22;27666;51.498;11.966;2024-02-26T15:09:56;10.70;99.90
17956;DHT22;27666;51.498;11.966;2024-02-26T15:12:46;10.80;99.90
17956;DHT22;27666;51.498;11.966;2024-02-26T15:15:33;10.80;99.90
17956;DHT22;27666;51.498;11.966;2024-02-26T15:18:20;10.70;99.90
17956;DHT22;27666;51.498;11.966;2024-02-26T15:21:06;10.70;99.90
17956;DHT22;27666;51.498;11.966;2024-02-26T15:23:53;10.70;99.90
17956;DHT22;27666;51.498;11.966;2024-02-26T15:26:52;10.80;99.90
17956;DHT22;27666;51.498;11.966;2024-02-26T15:29:40;10.80;99.90
17956;DHT22;27666;51.498;11.966;2024-02-26T15:32:26;10.70;99.90
17956;DHT22;27666;51.498;11.966;2024-02-26T15:35:13;10.80;99.90
17956;DHT22;27666;51.498;11.966;2024-02-26T15:38:00;10.80;99.90
17956;DHT22;27666;51.498;11.966;2024-02-26T15:40:47;10.70;99.90
17956;DHT22;27666;51.498;11.966;2024-02-26T15:43:33;10.70;99.90
17956;DHT22;27666;51.498;11.966;2024-02-26T15:46:21;10.70;99.90
17956;DHT22;27666;51.498;11.966;2024-02-26T15:49:08;10.70;99.90
17956;DHT22;27666;51.498;11.966;2024-02-26T15:52:00;10.70;99.90
17956;DHT22;27666;51.498;11.966;2024-02-26T15:54:46;10.60;99.90
17956;DHT22;27666;51.498;11.966;2024-02-26T15:57:33;10.60;99.90
17956;DHT22;27666;51.498;11.966;2024-02-26T16:00:20;10.60;99.90
17956;DHT22;27666;51.498;11.966;2024-02-26T16:03:08;10.60;99.90
17956;DHT22;27666;51.498;11.966;2024-02-26T16:05:55;10.60;99.90
17956;DHT22;27666;51.498;11.966;2024-02-26T16:08:42;10.60;99.90
17956;DHT22;27666;51.498;11.966;2024-02-26T16:11:28;10.50;99.90
17956;DHT22;27666;51.498;11.966;2024-02-26T16:14:21;10.50;99.90
17956;DHT22;27666;51.498;11.966;2024-02-26T16:17:15;10.40;99.90
17956;DHT22;27666;51.498;11.966;2024-02-26T16:20:05;10.30;99.90
17956;DHT22;27666;51.498;11.966;2024-02-26T16:22:54;10.30;99.90
17956;DHT22;27666;51.498;11.966;2024-02-26T16:25:41;10.20;99.90
17956;DHT22;27666;51.498;11.966;2024-02-26T16:28:27;10.20;99.90
17956;DHT22;27666;51.498;11.966;2024-02-26T16:31:14;10.10;99.90
17956;DHT22;27666;51.498;11.966;2024-02-26T16:34:00;10.10;99.90
17956;DHT22;27666;51.498;11.966;2024-02-26T16:36:49;10.10;99.90
17956;DHT22;27666;51.498;11.966;2024-02-26T16:39:36;10.00;99.90
17956;DHT22;27666;51.498;11.966;2024-02-26T16:42:22;9.90;99.90
17956;DHT22;27666;51.498;11.966;2024-02-26T16:45:09;9.90;99.90
17956;DHT22;27666;51.498;11.966;2024-02-26T16:47:58;9.90;99.90
17956;DHT22;27666;51.498;11.966;2024-02-26T16:50:45;9.80;99.90
17956;DHT22;27666;51.498;11.966;2024-02-26T16:53:33;9.80;99.90
17956;DHT22;27666;51.498;11.966;2024-02-26T16:56:19;9.80;99.90
17956;DHT22;27666;51.498;11.966;2024-02-26T16:59:06;9.70;99.90
17956;DHT22;27666;51.498;11.966;2024-02-26T17:01:54;9.70;99.90
17956;DHT22;27666;51.498;11.966;2024-02-26T17:04:40;9.70;99.90
17956;DHT22;27666;51.498;11.966;2024-02-26T17:07:27;9.60;99.90
17956;DHT22;27666;51.498;11.966;2024-02-26T17:10:15;9.60;99.90
17956;DHT22;27666;51.498;11.966;2024-02-26T17:13:02;9.60;99.90
17956;DHT22;27666;51.498;11.966;2024-02-26T17:15:48;9.60;99.90
17956;DHT22;27666;51.498;11.966;2024-02-26T17:18:35;9.50;99.90
17956;DHT22;27666;51.498;11.966;2024-02-26T17:21:22;9.50;99.90
17956;DHT22;27666;51.498;11.966;2024-02-26T17:24:09;9.40;99.90
17956;DHT22;27666;51.498;11.966;2024-02-26T17:26:57;9.40;99.90
17956;DHT22;27666;51.498;11.966;2024-02-26T17:29:43;9.40;99.90
17956;DHT22;27666;51.498;11.966;2024-02-26T17:32:30;9.40;99.90
17956;DHT22;27666;51.498;11.966;2024-02-26T17:35:16;9.30;99.90